Time;durP1;ratioP1;P1;durP2;ratioP2;P2;SDS_P1;SDS_P2;PMS_P1;PMS_P2;Temp;Humidity;BMP_temperature;BMP_pressure;BME280_temperature;BME280_humidity;BME280_pressure;Samples;Min_cycle;Max_cycle;Signal;HPM_P1;HPM_P2
2022/01/13 00:00:33;;;;;;;0.70;0.70;;;-3.50;93.20;;;;;;4993577;28;20691;-67
2022/01/13 00:03:00;;;;;;;0.50;0.50;;;-3.50;93.20;;;;;;4994549;28;20190;-67
2022/01/13 00:05:29;;;;;;;0.63;0.63;;;-3.50;93.40;;;;;;4994650;28;20173;-67
2022/01/13 00:07:57;;;;;;;0.55;0.55;;;-3.50;93.30;;;;;;4994761;28;20680;-67
2022/01/13 00:10:23;;;;;;;0.50;0.50;;;-3.50;93.10;;;;;;4994584;28;20168;-67
2022/01/13 00:12:56;;;;;;;0.60;0.60;;;-3.50;92.90;;;;;;4994589;28;20173;-67
2022/01/13 00:15:36;;;;;;;0.55;0.55;;;-3.50;92.60;;;;;;4994454;28;20177;-67
2022/01/13 00:18:09;;;;;;;0.75;0.75;;;-3.60;92.70;;;;;;4994498;28;20191;-67
2022/01/13 00:26:15;;;;;;;0.50;0.50;;;-3.50;93.00;;;;;;4994325;28;20175;-67
2022/01/13 00:28:44;;;;;;;0.50;0.50;;;-3.50;93.00;;;;;;4994279;28;20535;-67
2022/01/13 00:31:10;;;;;;;0.70;0.70;;;-3.60;93.20;;;;;;4994254;28;20623;-67
2022/01/13 00:33:36;;;;;;;0.50;0.50;;;-3.60;93.00;;;;;;4993967;28;20194;-67
2022/01/13 00:36:02;;;;;;;0.77;0.77;;;-3.70;92.80;;;;;;4993944;28;20421;-67
2022/01/13 00:38:29;;;;;;;0.65;0.65;;;-3.70;92.80;;;;;;4994151;28;20412;-67
2022/01/13 00:40:55;;;;;;;0.60;0.60;;;-3.80;93.10;;;;;;4994328;28;20179;-67
2022/01/13 00:43:21;;;;;;;0.90;0.90;;;-3.80;92.90;;;;;;4994172;28;20192;-67
2022/01/13 00:45:48;;;;;;;0.75;0.75;;;-3.80;93.00;;;;;;4993895;28;20164;-67
2022/01/13 00:48:14;;;;;;;0.47;0.47;;;-3.80;93.10;;;;;;4994011;28;20192;-67
2022/01/13 00:50:40;;;;;;;0.70;0.70;;;-3.70;93.40;;;;;;4994080;28;20179;-67
2022/01/13 00:53:06;;;;;;;0.80;0.80;;;-3.70;93.00;;;;;;4994240;28;20169;-67
2022/01/13 00:55:45;;;;;;;0.50;0.50;;;-3.80;92.50;;;;;;4993977;28;20407;-67
2022/01/13 00:58:11;;;;;;;0.50;0.50;;;-3.80;92.60;;;;;;4993959;28;20427;-68
2022/01/13 01:00:37;;;;;;;0.70;0.70;;;-3.80;92.70;;;;;;4993906;28;20169;-67
2022/01/13 01:03:03;;;;;;;0.60;0.60;;;-3.80;92.70;;;;;;4993745;28;20195;-67
2022/01/13 01:05:29;;;;;;;0.60;0.60;;;-3.80;92.70;;;;;;4993827;28;20430;-67
2022/01/13 01:07:55;;;;;;;0.70;0.70;;;-3.80;92.80;;;;;;4993837;28;20242;-67
2022/01/13 01:10:22;;;;;;;0.60;0.60;;;-3.80;92.70;;;;;;4994071;28;20650;-67
2022/01/13 01:12:47;;;;;;;0.70;0.70;;;-3.80;92.70;;;;;;4994087;28;20161;-67
2022/01/13 01:15:13;;;;;;;0.70;0.70;;;-3.80;92.80;;;;;;4993805;28;20204;-67
2022/01/13 01:17:45;;;;;;;0.63;0.63;;;-3.70;93.10;;;;;;4993609;28;20569;-67
2022/01/13 01:20:11;;;;;;;0.50;0.50;;;-3.70;93.20;;;;;;4993984;28;20176;-67
2022/01/13 01:22:56;;;;;;;0.80;0.80;;;-3.70;93.20;;;;;;4993942;28;20184;-67
2022/01/13 01:27:56;;;;;;;0.70;0.70;;;-3.60;93.30;;;;;;4994143;28;20283;-67
2022/01/13 01:30:29;;;;;;;0.65;0.65;;;-3.50;93.40;;;;;;4993815;28;20248;-67
2022/01/13 01:32:55;;;;;;;0.70;0.70;;;-3.60;93.40;;;;;;4993968;28;20180;-67
2022/01/13 01:35:25;;;;;;;0.70;0.70;;;-3.50;93.30;;;;;;4993667;28;20585;-67
2022/01/13 01:37:51;;;;;;;0.68;0.68;;;-3.50;93.10;;;;;;4993637;28;20428;-67
2022/01/13 01:40:17;;;;;;;0.75;0.75;;;-3.60;93.00;;;;;;4993830;28;20196;-67
2022/01/13 01:42:44;;;;;;;0.70;0.70;;;-3.60;93.10;;;;;;4993737;28;20175;-68
2022/01/13 01:45:11;;;;;;;0.75;0.75;;;-3.60;93.40;;;;;;4993671;28;20454;-67
2022/01/13 01:47:37;;;;;;;0.70;0.70;;;-3.50;93.60;;;;;;4996866;28;20199;-67
2022/01/13 01:50:11;;;;;;;0.65;0.65;;;-3.40;93.50;;;;;;4997403;28;20168;-67
2022/01/13 01:52:37;;;;;;;0.77;0.77;;;-3.30;93.60;;;;;;4997444;28;20168;-67
2022/01/13 01:55:04;;;;;;;0.70;0.70;;;-3.20;93.60;;;;;;4997555;28;20180;-67
2022/01/13 01:57:30;;;;;;;0.57;0.57;;;-3.20;93.80;;;;;;4995603;28;20206;-67
2022/01/13 01:59:55;;;;;;;0.50;0.50;;;-3.20;93.80;;;;;;4997174;28;20586;-67
2022/01/13 02:02:24;;;;;;;0.50;0.50;;;-3.00;94.00;;;;;;4997137;28;20259;-67
2022/01/13 02:04:49;;;;;;;0.50;0.50;;;-3.00;93.80;;;;;;4997088;28;20297;-67
2022/01/13 02:07:15;;;;;;;0.67;0.67;;;-3.00;93.30;;;;;;4996695;28;20195;-68
2022/01/13 02:09:43;;;;;;;0.60;0.60;;;-3.20;93.20;;;;;;4996951;28;20589;-67
2022/01/13 02:12:12;;;;;;;0.50;0.50;;;-3.10;93.50;;;;;;4996981;28;20239;-67
2022/01/13 02:14:55;;;;;;;0.60;0.60;;;-3.00;93.60;;;;;;4997019;28;20208;-67
2022/01/13 02:17:24;;;;;;;0.50;0.50;;;-3.00;93.50;;;;;;4996653;28;20605;-67
2022/01/13 02:19:52;;;;;;;0.70;0.70;;;-2.90;93.60;;;;;;4996744;28;20523;-67
2022/01/13 02:22:18;;;;;;;0.80;0.80;;;-2.80;93.50;;;;;;4997305;28;20172;-67
2022/01/13 02:24:43;;;;;;;0.60;0.60;;;-2.80;93.30;;;;;;4996570;28;20247;-67
2022/01/13 02:27:09;;;;;;;0.80;0.80;;;-2.80;92.90;;;;;;4996395;28;20184;-67
2022/01/13 02:29:35;;;;;;;0.50;0.50;;;-2.80;92.90;;;;;;4996534;28;20546;-67
2022/01/13 02:32:02;;;;;;;0.55;0.55;;;-2.80;93.00;;;;;;4996673;28;20535;-68
2022/01/13 02:34:28;;;;;;;0.60;0.60;;;-2.80;93.00;;;;;;4995141;28;20180;-67
2022/01/13 02:36:56;;;;;;;0.60;0.60;;;-2.80;93.20;;;;;;4996204;28;20209;-67
2022/01/13 02:39:23;;;;;;;0.60;0.60;;;-2.70;93.10;;;;;;4996322;28;20263;-68
2022/01/13 02:41:49;;;;;;;0.70;0.70;;;-2.70;92.90;;;;;;4996699;28;20168;-67
2022/01/13 02:44:18;;;;;;;0.70;0.70;;;-2.60;92.80;;;;;;4996297;28;20275;-68
2022/01/13 02:49:16;;;;;;;0.60;0.60;;;-2.50;92.70;;;;;;4996391;28;20223;-68
2022/01/13 02:51:43;;;;;;;0.52;0.52;;;-2.50;92.70;;;;;;4996159;28;20206;-67
2022/01/13 02:54:09;;;;;;;0.50;0.50;;;-2.50;92.50;;;;;;4996369;28;20173;-67
2022/01/13 02:56:36;;;;;;;0.50;0.50;;;-2.60;92.50;;;;;;4995637;28;20636;-67
2022/01/13 02:59:03;;;;;;;0.60;0.60;;;-2.50;92.50;;;;;;4995944;28;20196;-67
2022/01/13 03:01:28;;;;;;;0.60;0.60;;;-2.50;92.40;;;;;;4995917;28;20214;-67
2022/01/13 03:03:54;;;;;;;0.50;0.50;;;-2.60;92.50;;;;;;4995742;28;20259;-67
2022/01/13 03:06:32;;;;;;;0.70;0.70;;;-2.60;92.60;;;;;;4995698;28;20255;-67
2022/01/13 03:08:58;;;;;;;0.70;0.70;;;-2.60;92.70;;;;;;4995834;28;20177;-68
2022/01/13 03:11:30;;;;;;;0.60;0.60;;;-2.60;92.70;;;;;;4995758;28;20223;-67
2022/01/13 03:13:56;;;;;;;0.60;0.60;;;-2.60;92.80;;;;;;4995696;28;20408;-67
2022/01/13 03:16:22;;;;;;;0.57;0.57;;;-2.60;92.90;;;;;;4995470;28;20261;-67
2022/01/13 03:18:47;;;;;;;0.60;0.60;;;-2.60;92.70;;;;;;4995555;28;20255;-67
2022/01/13 03:21:13;;;;;;;0.60;0.60;;;-2.70;92.40;;;;;;4994387;28;20180;-67
2022/01/13 03:23:39;;;;;;;0.47;0.47;;;-2.70;92.50;;;;;;4995401;28;20242;-67
2022/01/13 03:26:05;;;;;;;0.50;0.50;;;-2.60;92.60;;;;;;4993878;28;20223;-67
2022/01/13 03:28:38;;;;;;;0.60;0.60;;;-2.70;92.50;;;;;;4995413;28;20630;-67
2022/01/13 03:31:05;;;;;;;0.60;0.60;;;-2.70;92.40;;;;;;4994199;28;20450;-68
2022/01/13 03:33:31;;;;;;;0.57;0.57;;;-2.70;92.60;;;;;;4995486;28;20180;-67
2022/01/13 03:35:57;;;;;;;0.50;0.50;;;-2.70;92.60;;;;;;4995174;28;20230;-67
2022/01/13 03:38:24;;;;;;;0.40;0.40;;;-2.70;92.60;;;;;;4993834;28;20763;-67
2022/01/13 03:40:50;;;;;;;0.60;0.60;;;-2.70;92.70;;;;;;4995056;28;20176;-67
2022/01/13 03:43:17;;;;;;;0.60;0.60;;;-2.70;92.70;;;;;;4994992;28;20662;-67
2022/01/13 03:45:43;;;;;;;0.50;0.50;;;-2.70;92.50;;;;;;4994986;28;20400;-67
2022/01/13 03:48:13;;;;;;;0.60;0.60;;;-2.70;92.60;;;;;;4995065;28;20211;-67
2022/01/13 03:50:39;;;;;;;0.40;0.40;;;-2.60;92.70;;;;;;4995240;28;20167;-67
2022/01/13 03:53:27;;;;;;;0.50;0.50;;;-2.70;92.40;;;;;;4995068;28;20535;-67
2022/01/13 03:56:43;;;;;;;0.82;0.82;;;-2.60;92.30;;;;;;4994765;28;20238;-67
2022/01/13 03:59:46;;;;;;;0.65;0.65;;;-2.60;92.30;;;;;;4983156;28;20614;-67
2022/01/13 04:02:14;;;;;;;0.60;0.60;;;-2.80;91.80;;;;;;4994954;28;20180;-68
2022/01/13 04:04:45;;;;;;;0.57;0.57;;;-2.80;91.90;;;;;;4994888;28;20323;-67
2022/01/13 04:07:17;;;;;;;0.65;0.65;;;-2.80;92.20;;;;;;4994468;28;20220;-67
2022/01/13 04:09:43;;;;;;;0.80;0.80;;;-2.90;92.40;;;;;;4994282;28;20232;-67
2022/01/13 04:12:11;;;;;;;0.70;0.70;;;-2.80;92.50;;;;;;4994660;28;20281;-67
2022/01/13 04:17:07;;;;;;;0.75;0.75;;;-2.80;92.30;;;;;;4994422;28;20252;-67
2022/01/13 04:19:33;;;;;;;0.57;0.57;;;-2.90;92.30;;;;;;4994495;28;20183;-67
2022/01/13 04:21:59;;;;;;;0.50;0.50;;;-2.90;92.60;;;;;;4994678;28;20518;-67
2022/01/13 04:24:25;;;;;;;0.67;0.67;;;-2.90;92.60;;;;;;4993267;28;20222;-67
2022/01/13 04:26:53;;;;;;;0.50;0.50;;;-2.80;92.50;;;;;;4994267;28;20229;-67
2022/01/13 04:29:28;;;;;;;0.70;0.70;;;-2.90;92.40;;;;;;4993074;28;20552;-67
2022/01/13 04:31:54;;;;;;;0.52;0.52;;;-2.90;92.50;;;;;;4994575;28;20175;-67
2022/01/13 04:34:19;;;;;;;0.60;0.60;;;-3.00;92.40;;;;;;4994522;28;20176;-67
2022/01/13 04:36:46;;;;;;;0.60;0.60;;;-2.90;92.50;;;;;;4994092;28;20455;-67
2022/01/13 04:39:14;;;;;;;0.70;0.70;;;-2.90;92.60;;;;;;4994220;28;20203;-67
2022/01/13 04:41:41;;;;;;;0.40;0.40;;;-2.90;92.40;;;;;;4993014;28;20211;-67
2022/01/13 04:44:09;;;;;;;0.50;0.50;;;-2.90;92.40;;;;;;4994192;28;20640;-68
2022/01/13 04:46:35;;;;;;;0.60;0.60;;;-3.10;92.20;;;;;;4993816;28;20196;-68
2022/01/13 04:49:01;;;;;;;0.50;0.50;;;-3.10;92.80;;;;;;4994139;28;20164;-67
2022/01/13 04:51:29;;;;;;;0.60;0.60;;;-3.10;93.00;;;;;;4993925;28;20532;-67
2022/01/13 04:53:55;;;;;;;0.50;0.50;;;-3.00;93.10;;;;;;4994054;28;20407;-67
2022/01/13 04:59:13;;;;;;;0.60;0.60;;;-3.00;92.70;;;;;;4991952;28;20419;-67
2022/01/13 05:01:38;;;;;;;0.53;0.53;;;-2.90;92.70;;;;;;4994007;28;20195;-67
2022/01/13 05:04:06;;;;;;;0.80;0.80;;;-2.90;92.80;;;;;;4993870;28;20211;-67
2022/01/13 05:06:32;;;;;;;0.50;0.50;;;-2.80;92.90;;;;;;4993695;28;20431;-67
2022/01/13 05:08:58;;;;;;;0.82;0.82;;;-2.80;92.40;;;;;;4993915;28;20174;-67
2022/01/13 05:11:23;;;;;;;0.50;0.50;;;-2.90;92.40;;;;;;4993996;28;20222;-67
2022/01/13 05:13:50;;;;;;;0.57;0.57;;;-2.80;92.60;;;;;;4994163;28;20260;-67
2022/01/13 05:18:57;;;;;;;0.40;0.40;;;-2.70;92.40;;;;;;4994302;28;20276;-67
2022/01/13 05:21:38;;;;;;;0.70;0.70;;;-2.80;92.10;;;;;;4995972;28;20560;-67
2022/01/13 05:24:04;;;;;;;0.68;0.68;;;-2.80;92.10;;;;;;4997890;28;20289;-67
2022/01/13 05:26:30;;;;;;;0.70;0.70;;;-2.80;92.10;;;;;;4997583;28;20561;-67
2022/01/13 05:28:55;;;;;;;0.60;0.60;;;-2.80;92.20;;;;;;4997602;28;20272;-68
2022/01/13 05:31:21;;;;;;;0.80;0.80;;;-2.80;92.20;;;;;;4997573;28;20585;-67
2022/01/13 05:33:47;;;;;;;0.77;0.77;;;-2.80;92.40;;;;;;4997739;28;20944;-68
2022/01/13 05:36:13;;;;;;;0.40;0.40;;;-2.70;92.30;;;;;;4997402;28;20177;-67
2022/01/13 05:38:42;;;;;;;0.60;0.60;;;-2.70;92.10;;;;;;4997669;28;20251;-67
2022/01/13 05:41:08;;;;;;;0.50;0.50;;;-2.70;92.10;;;;;;4997655;28;20199;-67
2022/01/13 05:43:33;;;;;;;0.60;0.60;;;-2.80;92.00;;;;;;4997413;28;20243;-67
2022/01/13 05:45:59;;;;;;;0.63;0.63;;;-2.70;92.10;;;;;;4995613;28;20415;-68
2022/01/13 05:48:25;;;;;;;0.50;0.50;;;-2.70;92.20;;;;;;4996406;28;20218;-67
2022/01/13 05:50:51;;;;;;;0.60;0.60;;;-2.70;92.20;;;;;;4996344;28;20176;-67
2022/01/13 05:53:17;;;;;;;0.70;0.70;;;-2.70;92.10;;;;;;4995980;28;20688;-67
2022/01/13 05:55:43;;;;;;;0.50;0.50;;;-2.70;92.10;;;;;;4997092;28;20442;-67
2022/01/13 05:58:09;;;;;;;0.52;0.52;;;-2.80;92.00;;;;;;4997141;28;20191;-67
2022/01/13 06:00:35;;;;;;;0.50;0.50;;;-2.80;92.10;;;;;;4997055;28;20267;-68
2022/01/13 06:03:02;;;;;;;0.70;0.70;;;-2.70;92.20;;;;;;4996796;28;20188;-67
2022/01/13 06:05:27;;;;;;;0.70;0.70;;;-2.70;92.20;;;;;;4996920;28;20566;-67
2022/01/13 06:07:53;;;;;;;0.50;0.50;;;-2.70;92.00;;;;;;4996879;28;20191;-67
2022/01/13 06:10:19;;;;;;;0.43;0.43;;;-2.70;92.10;;;;;;4997048;28;20164;-67
2022/01/13 06:12:50;;;;;;;0.45;0.45;;;-2.60;92.10;;;;;;4996814;28;20415;-67
2022/01/13 06:15:20;;;;;;;0.55;0.55;;;-2.60;91.90;;;;;;4996811;28;20184;-67
2022/01/13 06:17:48;;;;;;;0.60;0.60;;;-2.60;92.00;;;;;;4995255;28;20246;-68
2022/01/13 06:20:15;;;;;;;0.40;0.40;;;-2.60;92.00;;;;;;4996759;28;20176;-67
2022/01/13 06:22:42;;;;;;;0.40;0.40;;;-2.60;91.70;;;;;;4996883;28;20236;-67
2022/01/13 06:25:09;;;;;;;0.70;0.70;;;-2.60;91.60;;;;;;4996616;28;20208;-67
2022/01/13 06:27:35;;;;;;;0.50;0.50;;;-2.70;91.50;;;;;;4996345;28;20242;-67
2022/01/13 06:30:01;;;;;;;0.53;0.53;;;-2.70;91.50;;;;;;4996527;28;20172;-68
2022/01/13 06:32:27;;;;;;;0.40;0.40;;;-2.70;91.70;;;;;;4996241;28;20837;-68
2022/01/13 06:34:52;;;;;;;0.63;0.63;;;-2.70;91.80;;;;;;4996595;28;20798;-67
2022/01/13 06:37:19;;;;;;;0.50;0.50;;;-2.70;91.80;;;;;;4996218;28;20272;-67
2022/01/13 06:39:46;;;;;;;0.70;0.70;;;-2.70;92.10;;;;;;4996295;28;20204;-67
2022/01/13 06:42:11;;;;;;;0.60;0.60;;;-2.70;92.00;;;;;;4996681;28;20183;-68
2022/01/13 06:44:38;;;;;;;0.60;0.60;;;-2.70;92.00;;;;;;4996571;28;20287;-68
2022/01/13 06:47:05;;;;;;;0.52;0.52;;;-2.70;91.90;;;;;;4996032;28;20435;-68
2022/01/13 06:49:30;;;;;;;0.73;0.73;;;-2.60;91.90;;;;;;4996217;28;20540;-68
2022/01/13 06:51:57;;;;;;;0.50;0.50;;;-2.60;92.30;;;;;;4996343;28;20181;-67
2022/01/13 06:54:23;;;;;;;0.50;0.50;;;-2.60;92.10;;;;;;4994959;28;20415;-67
2022/01/13 06:56:49;;;;;;;0.55;0.55;;;-2.60;91.90;;;;;;4994547;28;20196;-71
2022/01/13 06:59:15;;;;;;;0.40;0.40;;;-2.60;91.90;;;;;;4996114;28;20603;-74
2022/01/13 07:01:41;;;;;;;0.60;0.60;;;-2.70;91.90;;;;;;4996047;28;20255;-70
2022/01/13 07:04:12;;;;;;;0.60;0.60;;;-2.60;92.20;;;;;;4995725;28;20551;-68
2022/01/13 07:06:39;;;;;;;0.60;0.60;;;-2.60;92.00;;;;;;4995808;28;20198;-71
2022/01/13 07:09:08;;;;;;;0.60;0.60;;;-2.50;92.10;;;;;;4995887;28;20645;-68
2022/01/13 07:11:34;;;;;;;0.50;0.50;;;-2.50;92.00;;;;;;4995953;28;20630;-69
2022/01/13 07:14:00;;;;;;;0.50;0.50;;;-2.50;92.00;;;;;;4995936;28;20228;-67
2022/01/13 07:16:26;;;;;;;0.40;0.40;;;-2.40;91.90;;;;;;4995374;28;20196;-66
2022/01/13 07:18:52;;;;;;;0.70;0.70;;;-2.50;91.70;;;;;;4995608;28;20416;-67
2022/01/13 07:21:19;;;;;;;0.60;0.60;;;-2.50;91.80;;;;;;4995622;28;20183;-66
2022/01/13 07:23:45;;;;;;;0.40;0.40;;;-2.50;91.90;;;;;;4995455;28;20455;-69
2022/01/13 07:26:11;;;;;;;0.40;0.40;;;-2.50;91.80;;;;;;4995312;28;20696;-70
2022/01/13 07:28:36;;;;;;;0.57;0.57;;;-2.60;91.90;;;;;;4995474;28;20415;-70
2022/01/13 07:31:02;;;;;;;0.40;0.40;;;-2.60;92.10;;;;;;4995656;28;20453;-68
2022/01/13 07:33:28;;;;;;;0.60;0.60;;;-2.50;92.10;;;;;;4995533;28;20414;-67
2022/01/13 07:35:54;;;;;;;0.40;0.40;;;-2.40;92.20;;;;;;4995193;28;20173;-67
2022/01/13 07:38:20;;;;;;;0.55;0.55;;;-2.40;92.30;;;;;;4995191;28;20196;-67
2022/01/13 07:40:46;;;;;;;0.70;0.70;;;-2.30;92.50;;;;;;4995593;28;20180;-67
2022/01/13 07:43:12;;;;;;;0.65;0.65;;;-2.30;92.10;;;;;;4994719;28;20418;-67
2022/01/13 07:45:37;;;;;;;0.60;0.60;;;-2.30;92.00;;;;;;4995129;28;20634;-70
2022/01/13 07:48:03;;;;;;;0.50;0.50;;;-2.20;91.90;;;;;;4994991;28;20514;-68
2022/01/13 07:50:29;;;;;;;0.50;0.50;;;-2.20;92.00;;;;;;4995170;28;20177;-68
2022/01/13 07:52:55;;;;;;;0.50;0.50;;;-2.20;91.60;;;;;;4994954;28;20176;-68
2022/01/13 07:55:20;;;;;;;0.40;0.40;;;-2.10;91.80;;;;;;4994945;28;20210;-68
2022/01/13 07:57:46;;;;;;;0.40;0.40;;;-2.10;91.80;;;;;;4994686;28;20258;-70
2022/01/13 08:00:13;;;;;;;0.50;0.50;;;-2.00;91.70;;;;;;4994997;28;20288;-68
2022/01/13 08:02:40;;;;;;;0.50;0.50;;;-2.00;91.40;;;;;;4994817;28;20271;-67
2022/01/13 08:05:07;;;;;;;0.52;0.52;;;-2.10;91.10;;;;;;4994927;28;20231;-68
2022/01/13 08:07:33;;;;;;;0.40;0.40;;;-2.00;91.30;;;;;;4994461;28;20196;-70
2022/01/13 08:09:58;;;;;;;0.50;0.50;;;-2.00;91.40;;;;;;4994918;28;20164;-69
2022/01/13 08:12:24;;;;;;;0.50;0.50;;;-1.90;91.50;;;;;;4994735;28;20168;-70
2022/01/13 08:14:50;;;;;;;0.40;0.40;;;-1.80;91.80;;;;;;4994832;28;20561;-70
2022/01/13 08:20:02;;;;;;;0.30;0.30;;;0.00;90.80;;;;;;4994836;28;20191;-69
2022/01/13 08:22:28;;;;;;;0.30;0.30;;;1.20;86.40;;;;;;4993231;28;20582;-70
2022/01/13 08:24:53;;;;;;;0.40;0.40;;;2.20;83.20;;;;;;4993225;28;20298;-70
2022/01/13 08:27:19;;;;;;;0.30;0.30;;;3.20;77.90;;;;;;4994365;28;20196;-71
2022/01/13 08:29:44;;;;;;;0.30;0.30;;;4.30;71.60;;;;;;4993115;28;20169;-71
2022/01/13 08:32:10;;;;;;;0.37;0.37;;;5.70;65.40;;;;;;4995041;28;20678;-70
2022/01/13 08:34:36;;;;;;;0.30;0.30;;;6.50;59.40;;;;;;4994255;28;20172;-68
2022/01/13 08:37:01;;;;;;;0.40;0.40;;;6.70;56.80;;;;;;4994376;28;20595;-72
2022/01/13 08:39:27;;;;;;;0.40;0.40;;;6.70;56.50;;;;;;4994627;28;20522;-71
2022/01/13 08:41:53;;;;;;;0.50;0.50;;;6.70;57.20;;;;;;4994692;28;20776;-70
2022/01/13 08:44:19;;;;;;;0.97;0.97;;;6.60;56.80;;;;;;4994265;28;20662;-70
2022/01/13 08:46:44;;;;;;;0.30;0.30;;;6.30;57.20;;;;;;4994202;28;20195;-70
2022/01/13 08:49:10;;;;;;;0.37;0.37;;;5.60;57.00;;;;;;4994567;28;20623;-72
2022/01/13 08:51:36;;;;;;;0.40;0.40;;;5.30;58.80;;;;;;4994466;28;20180;-71
2022/01/13 08:54:02;;;;;;;0.50;0.50;;;5.70;59.60;;;;;;4994471;28;20164;-68
2022/01/13 08:56:28;;;;;;;0.40;0.40;;;6.90;58.20;;;;;;4993828;28;20557;-70
2022/01/13 08:58:54;;;;;;;0.60;0.60;;;7.90;55.00;;;;;;4994576;28;20395;-67
2022/01/13 09:01:21;;;;;;;0.40;0.40;;;9.00;53.10;;;;;;4994635;28;20164;-69
2022/01/13 09:03:47;;;;;;;6.18;1.65;;;9.50;50.80;;;;;;4994082;28;20217;-71
2022/01/13 09:06:12;;;;;;;0.37;0.37;;;10.20;48.70;;;;;;4993754;28;20264;-70
2022/01/13 09:08:39;;;;;;;0.40;0.40;;;10.20;47.50;;;;;;4994378;28;20181;-71
2022/01/13 09:11:05;;;;;;;0.32;0.32;;;10.40;47.60;;;;;;4993158;28;20211;-70
2022/01/13 09:13:36;;;;;;;0.40;0.40;;;10.80;46.90;;;;;;4994306;28;20222;-68
2022/01/13 09:16:02;;;;;;;0.40;0.40;;;11.50;45.20;;;;;;4994246;28;20168;-70
2022/01/13 09:18:47;;;;;;;0.30;0.30;;;12.10;44.20;;;;;;4993989;28;20172;-68
2022/01/13 09:21:13;;;;;;;0.40;0.40;;;12.40;44.00;;;;;;4992729;28;20661;-68
2022/01/13 09:23:40;;;;;;;0.50;0.50;;;12.20;42.30;;;;;;4993893;28;20207;-68
2022/01/13 09:26:13;;;;;;;1.60;1.23;;;12.60;43.20;;;;;;4993696;28;20625;-68
2022/01/13 09:28:40;;;;;;;0.30;0.30;;;13.30;42.40;;;;;;4990305;28;20246;-68
2022/01/13 09:31:07;;;;;;;0.30;0.30;;;14.10;40.30;;;;;;4994186;28;20173;-68
2022/01/13 09:33:33;;;;;;;0.30;0.30;;;14.40;39.30;;;;;;4994132;28;20171;-67
2022/01/13 09:36:00;;;;;;;0.40;0.40;;;14.80;38.80;;;;;;4993759;28;20415;-68
2022/01/13 09:38:26;;;;;;;0.30;0.30;;;15.20;37.50;;;;;;4993809;28;20422;-68
2022/01/13 09:40:52;;;;;;;1.27;0.93;;;15.00;37.90;;;;;;4993861;28;20407;-69
2022/01/13 09:43:28;;;;;;;0.30;0.30;;;14.40;38.10;;;;;;4993932;28;20442;-68
2022/01/13 09:45:57;;;;;;;0.30;0.30;;;14.30;40.30;;;;;;4993473;28;20434;-68
2022/01/13 09:48:23;;;;;;;0.30;0.30;;;14.30;38.20;;;;;;4993532;28;20434;-69
2022/01/13 09:50:50;;;;;;;0.30;0.30;;;14.70;39.00;;;;;;4994172;28;20838;-68
2022/01/13 09:53:17;;;;;;;1.17;0.97;;;15.40;37.70;;;;;;4993770;28;20210;-67
2022/01/13 09:55:44;;;;;;;1.03;1.03;;;15.50;37.60;;;;;;4992189;28;20408;-70
2022/01/13 09:58:11;;;;;;;0.53;0.53;;;15.20;37.80;;;;;;4993237;28;20430;-70
2022/01/13 10:00:39;;;;;;;0.40;0.40;;;15.40;37.30;;;;;;4992091;28;20437;-71
2022/01/13 10:03:23;;;;;;;0.30;0.30;;;15.60;38.00;;;;;;4993136;28;20930;-71
2022/01/13 10:05:50;;;;;;;0.40;0.40;;;15.80;36.70;;;;;;4993921;28;20419;-70
2022/01/13 10:08:17;;;;;;;0.40;0.40;;;15.90;37.50;;;;;;4997112;28;20458;-75
2022/01/13 10:10:43;;;;;;;0.30;0.30;;;15.60;37.00;;;;;;4997133;28;20911;-71
2022/01/13 10:13:12;;;;;;;0.40;0.40;;;15.80;36.90;;;;;;4997511;28;20402;-70
2022/01/13 10:18:42;;;;;;;0.30;0.30;;;16.20;37.10;;;;;;4996836;28;20379;-70
2022/01/13 10:21:10;;;;;;;0.30;0.30;;;15.80;38.10;;;;;;4994957;28;20403;-69
2022/01/13 10:23:36;;;;;;;0.30;0.30;;;15.60;38.80;;;;;;4996940;28;20462;-69
2022/01/13 10:26:10;;;;;;;0.30;0.30;;;15.20;39.00;;;;;;4996223;28;20450;-70
2022/01/13 10:28:35;;;;;;;0.40;0.40;;;15.30;39.30;;;;;;4995896;28;20411;-69
2022/01/13 10:31:01;;;;;;;0.30;0.30;;;15.60;38.70;;;;;;4996709;28;20882;-69
2022/01/13 10:33:29;;;;;;;0.40;0.40;;;15.50;38.60;;;;;;4996834;28;20511;-69
2022/01/13 10:36:07;;;;;;;0.30;0.30;;;15.70;39.20;;;;;;4996334;28;20566;-70
2022/01/13 10:38:56;;;;;;;0.30;0.30;;;15.80;38.70;;;;;;4996520;28;20384;-70
2022/01/13 10:42:15;;;;;;;0.40;0.40;;;15.10;39.80;;;;;;4996484;28;20399;-69
2022/01/13 10:44:23;;;;;;;0.40;0.40;;;15.10;38.60;;;;;;4990662;28;20451;-69
2022/01/13 10:47:00;;;;;;;0.40;0.40;;;15.00;40.00;;;;;;4996149;28;20435;-70
2022/01/13 10:49:34;;;;;;;0.30;0.30;;;14.50;37.60;;;;;;4992979;28;20408;-70
2022/01/13 10:52:16;;;;;;;0.83;0.83;;;14.60;40.60;;;;;;4994837;28;20407;-70
2022/01/13 10:54:42;;;;;;;0.40;0.40;;;14.70;40.10;;;;;;4996159;28;20896;-70
2022/01/13 10:57:20;;;;;;;0.33;0.33;;;14.70;41.90;;;;;;4995954;28;20431;-70
2022/01/13 10:59:46;;;;;;;0.30;0.30;;;14.40;43.10;;;;;;4996115;28;20438;-70
2022/01/13 11:02:12;;;;;;;0.30;0.30;;;14.20;43.10;;;;;;4995823;28;20443;-70
2022/01/13 11:04:38;;;;;;;0.30;0.30;;;14.10;42.70;;;;;;4995863;28;20557;-70
2022/01/13 11:07:14;;;;;;;0.30;0.30;;;13.90;41.40;;;;;;4995676;28;20427;-69
2022/01/13 11:09:43;;;;;;;0.30;0.30;;;13.00;41.00;;;;;;4996053;28;20446;-69
2022/01/13 11:12:13;;;;;;;0.30;0.30;;;12.60;40.80;;;;;;4996026;28;20403;-69
2022/01/13 11:14:43;;;;;;;0.30;0.30;;;12.20;43.70;;;;;;4994720;28;20188;-69
2022/01/13 11:17:10;;;;;;;0.30;0.30;;;11.70;42.80;;;;;;4994225;28;20439;-69
2022/01/13 11:19:39;;;;;;;0.30;0.30;;;11.20;42.20;;;;;;4994487;28;20176;-68
2022/01/13 11:22:09;;;;;;;0.40;0.40;;;10.50;46.00;;;;;;4995567;28;20222;-69
2022/01/13 11:24:36;;;;;;;0.30;0.30;;;10.40;42.90;;;;;;4995522;28;20230;-69
2022/01/13 11:27:03;;;;;;;0.40;0.40;;;10.10;47.50;;;;;;4995366;28;20195;-69
2022/01/13 11:29:29;;;;;;;0.30;0.30;;;10.10;48.70;;;;;;4995432;28;20179;-70
2022/01/13 11:31:56;;;;;;;0.30;0.30;;;9.80;48.30;;;;;;4995388;28;20176;-70
2022/01/13 11:34:23;;;;;;;0.30;0.30;;;9.80;47.50;;;;;;4995459;28;20542;-69
2022/01/13 11:36:49;;;;;;;0.30;0.30;;;9.60;46.70;;;;;;4995167;28;20210;-69
2022/01/13 11:39:15;;;;;;;0.40;0.40;;;9.60;49.20;;;;;;4995246;28;20172;-70
2022/01/13 11:42:00;;;;;;;0.40;0.40;;;9.40;52.20;;;;;;4995339;28;20180;-68
2022/01/13 11:44:26;;;;;;;0.40;0.40;;;8.80;54.20;;;;;;4995114;28;20199;-69
2022/01/13 11:46:51;;;;;;;0.40;0.40;;;8.30;56.30;;;;;;4995040;28;20215;-69
2022/01/13 11:49:21;;;;;;;0.40;0.40;;;8.20;55.40;;;;;;4994698;28;20168;-70
2022/01/13 11:51:58;;;;;;;0.40;0.40;;;7.70;54.20;;;;;;4993249;28;20176;-70
2022/01/13 11:54:31;;;;;;;0.40;0.40;;;7.90;54.60;;;;;;4993737;28;20183;-69
2022/01/13 11:57:19;;;;;;;0.40;0.40;;;8.10;53.20;;;;;;4993876;28;20571;-70
2022/01/13 11:59:56;;;;;;;0.40;0.40;;;8.00;51.70;;;;;;4994050;28;20181;-68
2022/01/13 12:02:23;;;;;;;0.40;0.40;;;7.70;54.90;;;;;;4992620;28;20179;-69
2022/01/13 12:05:15;;;;;;;0.40;0.40;;;7.30;54.80;;;;;;4993884;28;20256;-69
2022/01/13 12:07:43;;;;;;;0.40;0.40;;;7.20;54.20;;;;;;4994513;28;20200;-69
2022/01/13 12:10:30;;;;;;;0.40;0.40;;;7.00;54.90;;;;;;4994960;28;20176;-69
2022/01/13 12:12:56;;;;;;;0.40;0.40;;;6.80;54.50;;;;;;4994699;28;20518;-68
2022/01/13 12:15:25;;;;;;;0.40;0.40;;;6.70;56.60;;;;;;4994745;28;20165;-69
2022/01/13 12:17:59;;;;;;;0.40;0.40;;;6.30;57.20;;;;;;4994614;28;20193;-69
2022/01/13 12:20:50;;;;;;;0.40;0.40;;;6.00;60.60;;;;;;4994618;28;20177;-69
2022/01/13 12:23:37;;;;;;;0.40;0.40;;;5.70;62.50;;;;;;4994479;28;20168;-69
2022/01/13 12:26:23;;;;;;;0.40;0.40;;;4.80;65.70;;;;;;4994231;28;20177;-69
2022/01/13 12:29:21;;;;;;;0.40;0.40;;;4.70;66.30;;;;;;4994315;28;20332;-69
2022/01/13 12:31:52;;;;;;;0.40;0.40;;;4.90;64.00;;;;;;4994553;28;20179;-69
2022/01/13 12:34:33;;;;;;;0.40;0.40;;;5.00;66.00;;;;;;4994303;28;20211;-69
2022/01/13 12:37:21;;;;;;;0.30;0.30;;;5.10;67.40;;;;;;4994175;28;20677;-69
2022/01/13 12:39:57;;;;;;;0.40;0.40;;;4.70;67.70;;;;;;4994325;28;20196;-68
2022/01/13 12:42:26;;;;;;;0.35;0.35;;;4.70;66.30;;;;;;4994470;28;20160;-69
2022/01/13 12:47:38;;;;;;;0.40;0.40;;;4.80;63.90;;;;;;4994247;28;20223;-68
2022/01/13 12:50:34;;;;;;;0.30;0.30;;;4.50;67.00;;;;;;4994294;28;20187;-69
2022/01/13 12:53:36;;;;;;;2.30;0.88;;;4.50;63.90;;;;;;4994332;28;20160;-67
2022/01/13 12:56:09;;;;;;;0.40;0.40;;;4.70;66.50;;;;;;4972447;28;20184;-69
2022/01/13 12:58:51;;;;;;;0.40;0.40;;;4.70;65.80;;;;;;4990858;28;20188;-68
2022/01/13 13:01:22;;;;;;;0.40;0.40;;;4.80;66.60;;;;;;4994256;28;20182;-68
2022/01/13 13:04:11;;;;;;;0.40;0.40;;;4.60;68.80;;;;;;4993877;28;20200;-68
2022/01/13 13:06:49;;;;;;;0.40;0.40;;;4.50;63.90;;;;;;4993711;28;20204;-69
2022/01/13 13:09:20;;;;;;;0.40;0.40;;;4.60;65.30;;;;;;4993999;28;20563;-69
2022/01/13 13:11:56;;;;;;;0.30;0.30;;;4.70;64.50;;;;;;4994170;28;20638;-70
2022/01/13 13:14:33;;;;;;;0.40;0.40;;;4.90;59.50;;;;;;4994177;28;20196;-69
2022/01/13 13:17:00;;;;;;;0.40;0.40;;;4.70;69.70;;;;;;4993767;28;20274;-68
2022/01/13 13:19:26;;;;;;;0.40;0.40;;;4.80;64.00;;;;;;4993925;28;20187;-69
2022/01/13 13:21:52;;;;;;;0.30;0.30;;;4.80;69.00;;;;;;4993981;28;20171;-69
2022/01/13 13:24:22;;;;;;;0.30;0.30;;;4.70;68.40;;;;;;4993791;28;20246;-69